sensor_id;sensor_type;location;lat;lon;timestamp;pressure;altitude;pressure_sealevel;temperature;humidity
8890;BME280;4481;43.406;24.454;2023-01-10T00:01:41;77728.19;;;-144.09;100.00
8890;BME280;4481;43.406;24.454;2023-01-10T00:04:07;77701.03;;;-144.09;100.00
8890;BME280;4481;43.406;24.454;2023-01-10T00:06:34;77690.56;;;-144.09;100.00
8890;BME280;4481;43.406;24.454;2023-01-10T00:09:00;77671.75;;;-144.09;100.00
8890;BME280;4481;43.406;24.454;2023-01-10T00:11:26;77698.94;;;-144.09;100.00
8890;BME280;4481;43.406;24.454;2023-01-10T00:14:10;77682.22;;;-144.09;100.00
8890;BME280;4481;43.406;24.454;2023-01-10T00:16:37;77686.41;;;-144.09;100.00
8890;BME280;4481;43.406;24.454;2023-01-10T00:19:03;77665.50;;;-144.09;100.00
8890;BME280;4481;43.406;24.454;2023-01-10T00:21:30;77659.22;;;-144.09;100.00
8890;BME280;4481;43.406;24.454;2023-01-10T00:23:56;77719.84;;;-144.09;100.00
8890;BME280;4481;43.406;24.454;2023-01-10T00:26:28;77740.75;;;-144.09;100.00
8890;BME280;4481;43.406;24.454;2023-01-10T00:28:54;77740.75;;;-144.09;100.00
8890;BME280;4481;43.406;24.454;2023-01-10T00:31:20;77726.09;;;-144.09;100.00
8890;BME280;4481;43.406;24.454;2023-01-10T00:33:47;77713.56;;;-144.09;100.00
8890;BME280;4481;43.406;24.454;2023-01-10T00:36:13;77744.91;;;-144.09;100.00
8890;BME280;4481;43.406;24.454;2023-01-10T00:38:40;77767.91;;;-144.09;100.00
8890;BME280;4481;43.406;24.454;2023-01-10T00:41:06;77772.09;;;-144.09;100.00
8890;BME280;4481;43.406;24.454;2023-01-10T00:43:52;77776.28;;;-144.09;100.00
8890;BME280;4481;43.406;24.454;2023-01-10T00:46:21;77767.91;;;-144.09;100.00
8890;BME280;4481;43.406;24.454;2023-01-10T00:48:48;77759.56;;;-144.09;100.00
8890;BME280;4481;43.406;24.454;2023-01-10T00:51:14;77799.28;;;-144.09;100.00
8890;BME280;4481;43.406;24.454;2023-01-10T00:53:40;77782.53;;;-144.09;100.00
8890;BME280;4481;43.406;24.454;2023-01-10T00:56:06;77738.66;;;-144.09;100.00
8890;BME280;4481;43.406;24.454;2023-01-10T00:58:32;77728.19;;;-144.09;100.00
8890;BME280;4481;43.406;24.454;2023-01-10T01:00:59;77728.19;;;-144.09;100.00
8890;BME280;4481;43.406;24.454;2023-01-10T01:03:25;77801.34;;;-144.09;100.00
8890;BME280;4481;43.406;24.454;2023-01-10T01:05:52;77772.09;;;-144.09;100.00
8890;BME280;4481;43.406;24.454;2023-01-10T01:08:18;77761.66;;;-144.09;100.00
8890;BME280;4481;43.406;24.454;2023-01-10T01:10:45;77747.00;;;-144.09;100.00
8890;BME280;4481;43.406;24.454;2023-01-10T01:13:13;77734.47;;;-144.09;100.00
8890;BME280;4481;43.406;24.454;2023-01-10T01:15:39;77763.72;;;-144.09;100.00
8890;BME280;4481;43.406;24.454;2023-01-10T01:18:06;77780.47;;;-144.09;100.00
8890;BME280;4481;43.406;24.454;2023-01-10T01:20:33;77795.09;;;-144.09;100.00
8890;BME280;4481;43.406;24.454;2023-01-10T01:23:00;77778.38;;;-144.09;100.00
8890;BME280;4481;43.406;24.454;2023-01-10T01:25:26;77751.19;;;-144.09;100.00
8890;BME280;4481;43.406;24.454;2023-01-10T01:27:52;77747.00;;;-144.09;100.00
8890;BME280;4481;43.406;24.454;2023-01-10T01:30:18;77744.91;;;-144.09;100.00
8890;BME280;4481;43.406;24.454;2023-01-10T01:32:44;77763.72;;;-144.09;100.00
8890;BME280;4481;43.406;24.454;2023-01-10T01:35:13;77759.56;;;-144.09;100.00
8890;BME280;4481;43.406;24.454;2023-01-10T01:37:39;77765.81;;;-144.09;100.00
8890;BME280;4481;43.406;24.454;2023-01-10T01:40:09;77749.09;;;-144.09;100.00
8890;BME280;4481;43.406;24.454;2023-01-10T01:42:36;77736.56;;;-144.09;100.00
8890;BME280;4481;43.406;24.454;2023-01-10T01:48:18;77761.66;;;-144.09;100.00
8890;BME280;4481;43.406;24.454;2023-01-10T01:50:50;77755.38;;;-144.09;100.00
8890;BME280;4481;43.406;24.454;2023-01-10T01:53:20;77734.47;;;-144.09;100.00
8890;BME280;4481;43.406;24.454;2023-01-10T01:55:50;77721.94;;;-144.09;100.00
8890;BME280;4481;43.406;24.454;2023-01-10T01:58:23;77688.47;;;-144.09;100.00
8890;BME280;4481;43.406;24.454;2023-01-10T02:00:51;77724.03;;;-144.09;100.00
8890;BME280;4481;43.406;24.454;2023-01-10T02:03:17;77724.03;;;-144.09;100.00
8890;BME280;4481;43.406;24.454;2023-01-10T02:05:44;77761.66;;;-144.09;100.00
8890;BME280;4481;43.406;24.454;2023-01-10T02:08:11;77732.38;;;-144.09;100.00
8890;BME280;4481;43.406;24.454;2023-01-10T02:10:42;77705.22;;;-144.09;100.00
8890;BME280;4481;43.406;24.454;2023-01-10T02:13:14;77730.28;;;-144.09;100.00
8890;BME280;4481;43.406;24.454;2023-01-10T02:15:40;77730.28;;;-144.09;100.00
8890;BME280;4481;43.406;24.454;2023-01-10T02:18:07;77734.47;;;-144.09;100.00
8890;BME280;4481;43.406;24.454;2023-01-10T02:20:38;77732.38;;;-144.09;100.00
8890;BME280;4481;43.406;24.454;2023-01-10T02:26:36;77692.66;;;-144.09;100.00
8890;BME280;4481;43.406;24.454;2023-01-10T02:29:31;77703.13;;;-144.09;100.00
8890;BME280;4481;43.406;24.454;2023-01-10T02:32:12;77686.41;;;-144.09;100.00
8890;BME280;4481;43.406;24.454;2023-01-10T02:34:49;77661.31;;;-144.09;100.00
8890;BME280;4481;43.406;24.454;2023-01-10T02:37:24;77675.94;;;-144.09;100.00
8890;BME280;4481;43.406;24.454;2023-01-10T02:39:58;77684.31;;;-144.09;100.00
8890;BME280;4481;43.406;24.454;2023-01-10T02:42:32;77663.41;;;-144.09;100.00
8890;BME280;4481;43.406;24.454;2023-01-10T02:45:05;77644.59;;;-144.09;100.00
8890;BME280;4481;43.406;24.454;2023-01-10T02:47:37;77636.22;;;-144.09;100.00
8890;BME280;4481;43.406;24.454;2023-01-10T02:50:28;77615.31;;;-144.09;100.00
8890;BME280;4481;43.406;24.454;2023-01-10T02:52:55;77632.03;;;-144.09;100.00
8890;BME280;4481;43.406;24.454;2023-01-10T02:55:27;77659.22;;;-144.09;100.00
8890;BME280;4481;43.406;24.454;2023-01-10T02:58:05;77659.22;;;-144.09;100.00
8890;BME280;4481;43.406;24.454;2023-01-10T03:00:42;77655.03;;;-144.09;100.00
8890;BME280;4481;43.406;24.454;2023-01-10T03:03:22;77663.41;;;-144.09;100.00
8890;BME280;4481;43.406;24.454;2023-01-10T03:05:55;77652.94;;;-144.09;100.00
8890;BME280;4481;43.406;24.454;2023-01-10T03:08:36;77627.88;;;-144.09;100.00
8890;BME280;4481;43.406;24.454;2023-01-10T03:11:04;77638.31;;;-144.09;100.00
8890;BME280;4481;43.406;24.454;2023-01-10T03:13:36;77588.16;;;-144.09;100.00
8890;BME280;4481;43.406;24.454;2023-01-10T03:16:06;77596.50;;;-144.09;100.00
8890;BME280;4481;43.406;24.454;2023-01-10T03:18:38;77606.97;;;-144.09;100.00
8890;BME280;4481;43.406;24.454;2023-01-10T03:21:07;77611.16;;;-144.09;100.00
8890;BME280;4481;43.406;24.454;2023-01-10T03:23:35;77613.25;;;-144.09;100.00
8890;BME280;4481;43.406;24.454;2023-01-10T03:26:02;77613.25;;;-144.09;100.00
8890;BME280;4481;43.406;24.454;2023-01-10T03:28:33;77613.25;;;-144.09;100.00
8890;BME280;4481;43.406;24.454;2023-01-10T03:31:07;77596.50;;;-144.09;100.00
8890;BME280;4481;43.406;24.454;2023-01-10T03:33:36;77586.06;;;-144.09;100.00
8890;BME280;4481;43.406;24.454;2023-01-10T03:36:10;77573.53;;;-144.09;100.00
8890;BME280;4481;43.406;24.454;2023-01-10T03:38:45;77579.78;;;-144.09;100.00
8890;BME280;4481;43.406;24.454;2023-01-10T03:41:18;77571.44;;;-144.09;100.00
8890;BME280;4481;43.406;24.454;2023-01-10T03:43:51;77558.88;;;-144.09;100.00
8890;BME280;4481;43.406;24.454;2023-01-10T03:46:41;77571.44;;;-144.09;100.00
8890;BME280;4481;43.406;24.454;2023-01-10T03:49:13;77581.88;;;-144.09;100.00
8890;BME280;4481;43.406;24.454;2023-01-10T03:51:40;77577.69;;;-144.09;100.00
8890;BME280;4481;43.406;24.454;2023-01-10T03:54:07;77563.06;;;-144.09;100.00
8890;BME280;4481;43.406;24.454;2023-01-10T03:56:43;77567.25;;;-144.09;100.00
8890;BME280;4481;43.406;24.454;2023-01-10T03:59:09;77617.41;;;-144.09;100.00
8890;BME280;4481;43.406;24.454;2023-01-10T04:01:36;77636.22;;;-144.09;100.00
8890;BME280;4481;43.406;24.454;2023-01-10T04:04:02;77627.88;;;-144.09;100.00
8890;BME280;4481;43.406;24.454;2023-01-10T04:06:29;77609.06;;;-144.09;100.00
8890;BME280;4481;43.406;24.454;2023-01-10T04:08:55;77588.16;;;-144.09;100.00
8890;BME280;4481;43.406;24.454;2023-01-10T04:11:22;77594.44;;;-144.09;100.00
8890;BME280;4481;43.406;24.454;2023-01-10T04:13:48;77581.88;;;-144.09;100.00
8890;BME280;4481;43.406;24.454;2023-01-10T04:16:14;77594.44;;;-144.09;100.00
8890;BME280;4481;43.406;24.454;2023-01-10T04:18:40;77581.88;;;-144.09;100.00
8890;BME280;4481;43.406;24.454;2023-01-10T04:21:06;77583.97;;;-144.09;100.00
8890;BME280;4481;43.406;24.454;2023-01-10T04:23:33;77586.06;;;-144.09;100.00
8890;BME280;4481;43.406;24.454;2023-01-10T04:25:59;77571.44;;;-144.09;100.00
8890;BME280;4481;43.406;24.454;2023-01-10T04:28:25;77569.34;;;-144.09;100.00
8890;BME280;4481;43.406;24.454;2023-01-10T04:30:51;77571.44;;;-144.09;100.00
8890;BME280;4481;43.406;24.454;2023-01-10T04:33:17;77600.69;;;-144.09;100.00
8890;BME280;4481;43.406;24.454;2023-01-10T04:35:46;77586.06;;;-144.09;100.00
8890;BME280;4481;43.406;24.454;2023-01-10T04:38:12;77596.50;;;-144.09;100.00
8890;BME280;4481;43.406;24.454;2023-01-10T04:40:39;77567.25;;;-144.09;100.00
8890;BME280;4481;43.406;24.454;2023-01-10T04:43:05;77544.25;;;-144.09;100.00
8890;BME280;4481;43.406;24.454;2023-01-10T04:45:31;77540.06;;;-144.09;100.00
8890;BME280;4481;43.406;24.454;2023-01-10T04:47:57;77548.44;;;-144.09;100.00
8890;BME280;4481;43.406;24.454;2023-01-10T04:50:25;77535.91;;;-144.09;100.00
8890;BME280;4481;43.406;24.454;2023-01-10T04:52:51;77525.44;;;-144.09;100.00
8890;BME280;4481;43.406;24.454;2023-01-10T04:55:18;77527.53;;;-144.09;100.00
8890;BME280;4481;43.406;24.454;2023-01-10T04:57:45;77538.00;;;-144.09;100.00
8890;BME280;4481;43.406;24.454;2023-01-10T05:00:12;77525.44;;;-144.09;100.00
8890;BME280;4481;43.406;24.454;2023-01-10T05:02:38;77525.44;;;-144.09;100.00
8890;BME280;4481;43.406;24.454;2023-01-10T05:05:08;77517.09;;;-144.09;100.00
8890;BME280;4481;43.406;24.454;2023-01-10T05:07:35;77523.34;;;-144.09;100.00
8890;BME280;4481;43.406;24.454;2023-01-10T05:10:01;77519.19;;;-144.09;100.00
8890;BME280;4481;43.406;24.454;2023-01-10T05:12:27;77512.91;;;-144.09;100.00
8890;BME280;4481;43.406;24.454;2023-01-10T05:14:54;77519.19;;;-144.09;100.00
8890;BME280;4481;43.406;24.454;2023-01-10T05:17:20;77523.34;;;-144.09;100.00
8890;BME280;4481;43.406;24.454;2023-01-10T05:19:46;77525.44;;;-144.09;100.00
8890;BME280;4481;43.406;24.454;2023-01-10T05:22:12;77521.28;;;-144.09;100.00
8890;BME280;4481;43.406;24.454;2023-01-10T05:24:38;77521.28;;;-144.09;100.00
8890;BME280;4481;43.406;24.454;2023-01-10T05:27:04;77538.00;;;-144.09;100.00
8890;BME280;4481;43.406;24.454;2023-01-10T05:29:31;77542.16;;;-144.09;100.00
8890;BME280;4481;43.406;24.454;2023-01-10T05:31:58;77533.81;;;-144.09;100.00
8890;BME280;4481;43.406;24.454;2023-01-10T05:34:24;77517.09;;;-144.09;100.00
8890;BME280;4481;43.406;24.454;2023-01-10T05:36:50;77498.28;;;-144.09;100.00
8890;BME280;4481;43.406;24.454;2023-01-10T05:39:16;77519.19;;;-144.09;100.00
8890;BME280;4481;43.406;24.454;2023-01-10T05:41:42;77533.81;;;-144.09;100.00
8890;BME280;4481;43.406;24.454;2023-01-10T05:44:09;77548.44;;;-144.09;100.00
8890;BME280;4481;43.406;24.454;2023-01-10T05:46:35;77594.44;;;-144.09;100.00
8890;BME280;4481;43.406;24.454;2023-01-10T05:49:02;77575.63;;;-144.09;100.00
8890;BME280;4481;43.406;24.454;2023-01-10T05:51:28;77544.25;;;-144.09;100.00
8890;BME280;4481;43.406;24.454;2023-01-10T05:53:55;77552.63;;;-144.09;100.00
8890;BME280;4481;43.406;24.454;2023-01-10T05:56:23;77554.72;;;-144.09;100.00
8890;BME280;4481;43.406;24.454;2023-01-10T05:58:49;77533.81;;;-144.09;100.00
8890;BME280;4481;43.406;24.454;2023-01-10T06:01:19;77517.09;;;-144.09;100.00
8890;BME280;4481;43.406;24.454;2023-01-10T06:03:45;77521.28;;;-144.09;100.00
8890;BME280;4481;43.406;24.454;2023-01-10T06:06:12;77542.16;;;-144.09;100.00
8890;BME280;4481;43.406;24.454;2023-01-10T06:08:39;77575.63;;;-144.09;100.00
8890;BME280;4481;43.406;24.454;2023-01-10T06:11:05;77558.88;;;-144.09;100.00
8890;BME280;4481;43.406;24.454;2023-01-10T06:13:33;77521.28;;;-144.09;100.00
8890;BME280;4481;43.406;24.454;2023-01-10T06:16:08;77512.91;;;-144.09;100.00
8890;BME280;4481;43.406;24.454;2023-01-10T06:18:35;77525.44;;;-144.09;100.00
8890;BME280;4481;43.406;24.454;2023-01-10T06:21:01;77512.91;;;-144.09;100.00
8890;BME280;4481;43.406;24.454;2023-01-10T06:23:28;77492.00;;;-144.09;100.00
8890;BME280;4481;43.406;24.454;2023-01-10T06:25:55;77471.09;;;-144.09;100.00
8890;BME280;4481;43.406;24.454;2023-01-10T06:28:21;77483.66;;;-144.09;100.00
8890;BME280;4481;43.406;24.454;2023-01-10T06:30:47;77446.03;;;-144.09;100.00
8890;BME280;4481;43.406;24.454;2023-01-10T06:33:14;77469.00;;;-144.09;100.00
8890;BME280;4481;43.406;24.454;2023-01-10T06:35:40;77460.66;;;-144.09;100.00
8890;BME280;4481;43.406;24.454;2023-01-10T06:38:06;77469.00;;;-144.09;100.00
8890;BME280;4481;43.406;24.454;2023-01-10T06:40:33;77508.72;;;-144.09;100.00
8890;BME280;4481;43.406;24.454;2023-01-10T06:42:59;77538.00;;;-144.09;100.00
8890;BME280;4481;43.406;24.454;2023-01-10T06:45:26;77558.88;;;-144.09;100.00
8890;BME280;4481;43.406;24.454;2023-01-10T06:47:52;77560.97;;;-144.09;100.00
8890;BME280;4481;43.406;24.454;2023-01-10T06:50:19;77546.34;;;-144.09;100.00
8890;BME280;4481;43.406;24.454;2023-01-10T06:52:45;77531.72;;;-144.09;100.00
8890;BME280;4481;43.406;24.454;2023-01-10T06:55:14;77508.72;;;-144.09;100.00
8890;BME280;4481;43.406;24.454;2023-01-10T06:57:41;77479.47;;;-144.09;100.00
8890;BME280;4481;43.406;24.454;2023-01-10T07:00:08;77443.94;;;-144.09;100.00
8890;BME280;4481;43.406;24.454;2023-01-10T07:02:36;77441.84;;;-144.09;100.00
8890;BME280;4481;43.406;24.454;2023-01-10T07:05:05;77437.66;;;-144.09;100.00
8890;BME280;4481;43.406;24.454;2023-01-10T07:07:31;77429.31;;;-144.09;100.00
8890;BME280;4481;43.406;24.454;2023-01-10T07:09:58;77406.31;;;-144.09;100.00
8890;BME280;4481;43.406;24.454;2023-01-10T07:12:25;77383.31;;;-144.09;100.00
8890;BME280;4481;43.406;24.454;2023-01-10T07:14:52;77391.69;;;-144.09;100.00
8890;BME280;4481;43.406;24.454;2023-01-10T07:17:20;77414.66;;;-144.09;100.00
8890;BME280;4481;43.406;24.454;2023-01-10T07:19:47;77418.84;;;-144.09;100.00
8890;BME280;4481;43.406;24.454;2023-01-10T07:22:13;77477.38;;;-144.09;100.00
8890;BME280;4481;43.406;24.454;2023-01-10T07:24:39;77460.66;;;-144.09;100.00
8890;BME280;4481;43.406;24.454;2023-01-10T07:27:06;77443.94;;;-144.09;100.00
8890;BME280;4481;43.406;24.454;2023-01-10T07:29:32;77435.56;;;-144.09;100.00
8890;BME280;4481;43.406;24.454;2023-01-10T07:31:59;77416.75;;;-144.09;100.00
8890;BME280;4481;43.406;24.454;2023-01-10T07:34:25;77412.59;;;-144.09;100.00
8890;BME280;4481;43.406;24.454;2023-01-10T07:36:52;77427.22;;;-144.09;100.00
8890;BME280;4481;43.406;24.454;2023-01-10T07:39:18;77439.75;;;-144.09;100.00
8890;BME280;4481;43.406;24.454;2023-01-10T07:41:46;77431.38;;;-144.09;100.00
8890;BME280;4481;43.406;24.454;2023-01-10T07:44:12;77450.19;;;-144.09;100.00
8890;BME280;4481;43.406;24.454;2023-01-10T07:46:38;77462.75;;;-144.09;100.00
8890;BME280;4481;43.406;24.454;2023-01-10T07:49:05;77431.38;;;-144.09;100.00
8890;BME280;4481;43.406;24.454;2023-01-10T07:51:31;77448.13;;;-144.09;100.00
8890;BME280;4481;43.406;24.454;2023-01-10T07:53:57;77460.66;;;-144.09;100.00
8890;BME280;4481;43.406;24.454;2023-01-10T07:56:24;77437.66;;;-144.09;100.00
8890;BME280;4481;43.406;24.454;2023-01-10T07:58:50;77462.75;;;-144.09;100.00
8890;BME280;4481;43.406;24.454;2023-01-10T08:01:16;77477.38;;;-144.09;100.00
8890;BME280;4481;43.406;24.454;2023-01-10T08:03:42;77435.56;;;-144.09;100.00
8890;BME280;4481;43.406;24.454;2023-01-10T08:06:09;77425.13;;;-144.09;100.00
8890;BME280;4481;43.406;24.454;2023-01-10T08:08:36;77387.50;;;-144.09;100.00
8890;BME280;4481;43.406;24.454;2023-01-10T08:11:03;77377.06;;;-144.09;100.00
8890;BME280;4481;43.406;24.454;2023-01-10T08:13:29;77406.31;;;-144.09;100.00
8890;BME280;4481;43.406;24.454;2023-01-10T08:15:56;77408.41;;;-144.09;100.00
8890;BME280;4481;43.406;24.454;2023-01-10T08:18:23;77379.13;;;-144.09;100.00
8890;BME280;4481;43.406;24.454;2023-01-10T08:20:50;77368.69;;;-144.09;100.00
8890;BME280;4481;43.406;24.454;2023-01-10T08:23:18;77366.59;;;-144.09;100.00
8890;BME280;4481;43.406;24.454;2023-01-10T08:25:44;77362.41;;;-144.09;100.00
8890;BME280;4481;43.406;24.454;2023-01-10T08:28:11;77335.25;;;-144.09;100.00
8890;BME280;4481;43.406;24.454;2023-01-10T08:30:38;77372.88;;;-144.09;100.00
8890;BME280;4481;43.406;24.454;2023-01-10T08:33:06;77406.31;;;-144.09;100.00
8890;BME280;4481;43.406;24.454;2023-01-10T08:35:35;77391.69;;;-144.09;100.00
8890;BME280;4481;43.406;24.454;2023-01-10T08:38:03;77400.03;;;-144.09;100.00
8890;BME280;4481;43.406;24.454;2023-01-10T08:40:30;77420.94;;;-144.09;100.00
8890;BME280;4481;43.406;24.454;2023-01-10T08:42:57;77408.41;;;-144.09;100.00
8890;BME280;4481;43.406;24.454;2023-01-10T08:45:24;77402.13;;;-144.09;100.00
8890;BME280;4481;43.406;24.454;2023-01-10T08:47:52;77402.13;;;-144.09;100.00
8890;BME280;4481;43.406;24.454;2023-01-10T08:50:18;77389.59;;;-144.09;100.00
8890;BME280;4481;43.406;24.454;2023-01-10T08:52:45;77379.13;;;-144.09;100.00
8890;BME280;4481;43.406;24.454;2023-01-10T08:55:11;77418.84;;;-144.09;100.00
8890;BME280;4481;43.406;24.454;2023-01-10T08:57:38;77416.75;;;-144.09;100.00
8890;BME280;4481;43.406;24.454;2023-01-10T09:00:05;77408.41;;;-144.09;100.00
8890;BME280;4481;43.406;24.454;2023-01-10T09:02:31;77397.94;;;-144.09;100.00
8890;BME280;4481;43.406;24.454;2023-01-10T09:04:58;77402.13;;;-144.09;100.00
8890;BME280;4481;43.406;24.454;2023-01-10T09:07:24;77368.69;;;-144.09;100.00
8890;BME280;4481;43.406;24.454;2023-01-10T09:09:50;77362.41;;;-144.09;100.00
8890;BME280;4481;43.406;24.454;2023-01-10T09:12:17;77379.13;;;-144.09;100.00
8890;BME280;4481;43.406;24.454;2023-01-10T09:15:02;77360.34;;;-144.09;100.00
8890;BME280;4481;43.406;24.454;2023-01-10T09:17:28;77358.25;;;-144.09;100.00
8890;BME280;4481;43.406;24.454;2023-01-10T09:19:54;77372.88;;;-144.09;100.00
8890;BME280;4481;43.406;24.454;2023-01-10T09:22:20;77370.78;;;-144.09;100.00
8890;BME280;4481;43.406;24.454;2023-01-10T09:24:47;77383.31;;;-144.09;100.00
8890;BME280;4481;43.406;24.454;2023-01-10T09:27:13;77395.88;;;-144.09;100.00
8890;BME280;4481;43.406;24.454;2023-01-10T09:29:39;77385.41;;;-144.09;100.00
8890;BME280;4481;43.406;24.454;2023-01-10T09:32:06;77360.34;;;-144.09;100.00
8890;BME280;4481;43.406;24.454;2023-01-10T09:34:33;77364.50;;;-144.09;100.00
8890;BME280;4481;43.406;24.454;2023-01-10T09:36:59;77383.31;;;-144.09;100.00
8890;BME280;4481;43.406;24.454;2023-01-10T09:39:25;77364.50;;;-144.09;100.00
8890;BME280;4481;43.406;24.454;2023-01-10T09:42:21;77349.88;;;-144.09;100.00
8890;BME280;4481;43.406;24.454;2023-01-10T09:44:59;77354.06;;;-144.09;100.00
8890;BME280;4481;43.406;24.454;2023-01-10T09:47:36;77354.06;;;-144.09;100.00
8890;BME280;4481;43.406;24.454;2023-01-10T09:50:13;77337.34;;;-144.09;100.00
8890;BME280;4481;43.406;24.454;2023-01-10T09:52:43;77333.16;;;-144.09;100.00
8890;BME280;4481;43.406;24.454;2023-01-10T09:55:17;77366.59;;;-144.09;100.00
8890;BME280;4481;43.406;24.454;2023-01-10T09:57:45;77354.06;;;-144.09;100.00
8890;BME280;4481;43.406;24.454;2023-01-10T10:00:16;77374.97;;;-144.09;100.00
8890;BME280;4481;43.406;24.454;2023-01-10T10:02:47;77377.06;;;-144.09;100.00
8890;BME280;4481;43.406;24.454;2023-01-10T10:05:18;77370.78;;;-144.09;100.00
8890;BME280;4481;43.406;24.454;2023-01-10T10:07:45;77368.69;;;-144.09;100.00
8890;BME280;4481;43.406;24.454;2023-01-10T10:10:19;77393.78;;;-144.09;100.00
8890;BME280;4481;43.406;24.454;2023-01-10T10:12:54;77374.97;;;-144.09;100.00
8890;BME280;4481;43.406;24.454;2023-01-10T10:15:28;77370.78;;;-144.09;100.00
8890;BME280;4481;43.406;24.454;2023-01-10T10:18:05;77360.34;;;-144.09;100.00
8890;BME280;4481;43.406;24.454;2023-01-10T10:20:43;77341.53;;;-144.09;100.00
8890;BME280;4481;43.406;24.454;2023-01-10T10:23:24;77354.06;;;-144.09;100.00
8890;BME280;4481;43.406;24.454;2023-01-10T10:26:01;77358.25;;;-144.09;100.00
8890;BME280;4481;43.406;24.454;2023-01-10T10:31:27;77337.34;;;-144.09;100.00
8890;BME280;4481;43.406;24.454;2023-01-10T10:34:04;77328.97;;;-144.09;100.00
8890;BME280;4481;43.406;24.454;2023-01-10T10:36:38;77333.16;;;-144.09;100.00
8890;BME280;4481;43.406;24.454;2023-01-10T10:39:11;77314.34;;;-144.09;100.00
8890;BME280;4481;43.406;24.454;2023-01-10T10:41:42;77287.19;;;-144.09;100.00
8890;BME280;4481;43.406;24.454;2023-01-10T10:44:23;77285.09;;;-144.09;100.00
8890;BME280;4481;43.406;24.454;2023-01-10T10:46:53;77289.28;;;-144.09;100.00
8890;BME280;4481;43.406;24.454;2023-01-10T10:49:36;77295.53;;;-144.09;100.00
8890;BME280;4481;43.406;24.454;2023-01-10T10:52:09;77255.81;;;-144.09;100.00
8890;BME280;4481;43.406;24.454;2023-01-10T10:54:37;77276.72;;;-144.09;100.00
8890;BME280;4481;43.406;24.454;2023-01-10T10:57:03;77262.09;;;-144.09;100.00
8890;BME280;4481;43.406;24.454;2023-01-10T10:59:29;77287.19;;;-144.09;100.00
8890;BME280;4481;43.406;24.454;2023-01-10T11:01:56;77291.34;;;-144.09;100.00
8890;BME280;4481;43.406;24.454;2023-01-10T11:04:23;77293.44;;;-144.09;100.00
8890;BME280;4481;43.406;24.454;2023-01-10T11:06:50;77322.72;;;-144.09;100.00
8890;BME280;4481;43.406;24.454;2023-01-10T11:09:20;77310.16;;;-144.09;100.00
8890;BME280;4481;43.406;24.454;2023-01-10T11:11:50;77295.53;;;-144.09;100.00
8890;BME280;4481;43.406;24.454;2023-01-10T11:14:40;77276.72;;;-144.09;100.00
8890;BME280;4481;43.406;24.454;2023-01-10T11:17:21;77257.91;;;-144.09;100.00
8890;BME280;4481;43.406;24.454;2023-01-10T11:19:55;77278.81;;;-144.09;100.00
8890;BME280;4481;43.406;24.454;2023-01-10T11:22:23;77266.28;;;-144.09;100.00
8890;BME280;4481;43.406;24.454;2023-01-10T11:24:52;77249.56;;;-144.09;100.00
8890;BME280;4481;43.406;24.454;2023-01-10T11:27:22;77253.75;;;-144.09;100.00
8890;BME280;4481;43.406;24.454;2023-01-10T11:29:50;77243.28;;;-144.09;100.00
8890;BME280;4481;43.406;24.454;2023-01-10T11:32:18;77249.56;;;-144.09;100.00
8890;BME280;4481;43.406;24.454;2023-01-10T11:34:49;77278.81;;;-144.09;100.00
8890;BME280;4481;43.406;24.454;2023-01-10T11:37:21;77270.47;;;-144.09;100.00
8890;BME280;4481;43.406;24.454;2023-01-10T11:40:12;77289.28;;;-144.09;100.00
8890;BME280;4481;43.406;24.454;2023-01-10T11:42:40;77287.19;;;-144.09;100.00
8890;BME280;4481;43.406;24.454;2023-01-10T11:45:21;77264.19;;;-144.09;100.00
8890;BME280;4481;43.406;24.454;2023-01-10T11:47:49;77266.28;;;-144.09;100.00
8890;BME280;4481;43.406;24.454;2023-01-10T11:50:20;77268.38;;;-144.09;100.00
8890;BME280;4481;43.406;24.454;2023-01-10T11:52:49;77274.63;;;-144.09;100.00
8890;BME280;4481;43.406;24.454;2023-01-10T11:55:18;77283.00;;;-144.09;100.00
8890;BME280;4481;43.406;24.454;2023-01-10T11:57:46;77299.72;;;-144.09;100.00
8890;BME280;4481;43.406;24.454;2023-01-10T12:00:20;77326.88;;;-144.09;100.00
8890;BME280;4481;43.406;24.454;2023-01-10T12:02:47;77308.09;;;-144.09;100.00
8890;BME280;4481;43.406;24.454;2023-01-10T12:05:18;77303.91;;;-144.09;100.00
8890;BME280;4481;43.406;24.454;2023-01-10T12:07:56;77339.44;;;-144.09;100.00
8890;BME280;4481;43.406;24.454;2023-01-10T12:10:24;77341.53;;;-144.09;100.00
8890;BME280;4481;43.406;24.454;2023-01-10T12:12:54;77328.97;;;-144.09;100.00
8890;BME280;4481;43.406;24.454;2023-01-10T12:15:25;77331.06;;;-144.09;100.00
8890;BME280;4481;43.406;24.454;2023-01-10T12:17:52;77343.59;;;-144.09;100.00
8890;BME280;4481;43.406;24.454;2023-01-10T12:20:21;77354.06;;;-144.09;100.00
8890;BME280;4481;43.406;24.454;2023-01-10T12:22:51;77333.16;;;-144.09;100.00
8890;BME280;4481;43.406;24.454;2023-01-10T12:25:25;77349.88;;;-144.09;100.00
8890;BME280;4481;43.406;24.454;2023-01-10T12:27:54;77358.25;;;-144.09;100.00
8890;BME280;4481;43.406;24.454;2023-01-10T12:30:29;77345.69;;;-144.09;100.00
8890;BME280;4481;43.406;24.454;2023-01-10T12:32:58;77356.16;;;-144.09;100.00
8890;BME280;4481;43.406;24.454;2023-01-10T12:35:37;77362.41;;;-144.09;100.00
8890;BME280;4481;43.406;24.454;2023-01-10T12:38:10;77374.97;;;-144.09;100.00
8890;BME280;4481;43.406;24.454;2023-01-10T12:40:44;77387.50;;;-144.09;100.00
8890;BME280;4481;43.406;24.454;2023-01-10T12:43:16;77383.31;;;-144.09;100.00
8890;BME280;4481;43.406;24.454;2023-01-10T12:46:08;77383.31;;;-144.09;100.00
8890;BME280;4481;43.406;24.454;2023-01-10T12:48:44;77391.69;;;-144.09;100.00
8890;BME280;4481;43.406;24.454;2023-01-10T12:51:15;77397.94;;;-144.09;100.00
8890;BME280;4481;43.406;24.454;2023-01-10T12:53:47;77400.03;;;-144.09;100.00
8890;BME280;4481;43.406;24.454;2023-01-10T12:56:19;77400.03;;;-144.09;100.00
8890;BME280;4481;43.406;24.454;2023-01-10T12:58:49;77414.66;;;-144.09;100.00
8890;BME280;4481;43.406;24.454;2023-01-10T13:01:18;77416.75;;;-144.09;100.00